sensor_id;sensor_type;location;lat;lon;timestamp;P1;durP1;ratioP1;P2;durP2;ratioP2
7375;SDS011;3728;42.266;24.944;2022-12-29T00:00:24;26.27;;;15.53;;
7375;SDS011;3728;42.266;24.944;2022-12-29T00:02:51;21.67;;;14.60;;
7375;SDS011;3728;42.266;24.944;2022-12-29T00:05:19;20.47;;;13.40;;
7375;SDS011;3728;42.266;24.944;2022-12-29T00:07:47;20.00;;;11.40;;
7375;SDS011;3728;42.266;24.944;2022-12-29T00:10:14;25.30;;;12.63;;
7375;SDS011;3728;42.266;24.944;2022-12-29T00:12:42;19.13;;;11.57;;
7375;SDS011;3728;42.266;24.944;2022-12-29T00:15:28;20.00;;;11.80;;
7375;SDS011;3728;42.266;24.944;2022-12-29T00:18:06;19.43;;;10.40;;
7375;SDS011;3728;42.266;24.944;2022-12-29T00:20:37;18.37;;;11.07;;
7375;SDS011;3728;42.266;24.944;2022-12-29T00:23:23;20.73;;;10.87;;
7375;SDS011;3728;42.266;24.944;2022-12-29T00:26:16;20.47;;;11.27;;
7375;SDS011;3728;42.266;24.944;2022-12-29T00:29:02;15.13;;;10.97;;
7375;SDS011;3728;42.266;24.944;2022-12-29T00:31:49;19.80;;;11.37;;
7375;SDS011;3728;42.266;24.944;2022-12-29T00:34:35;18.53;;;12.50;;
7375;SDS011;3728;42.266;24.944;2022-12-29T00:37:21;18.23;;;10.83;;
7375;SDS011;3728;42.266;24.944;2022-12-29T00:40:09;18.07;;;10.67;;
7375;SDS011;3728;42.266;24.944;2022-12-29T00:42:55;16.23;;;10.93;;
7375;SDS011;3728;42.266;24.944;2022-12-29T00:45:42;16.47;;;10.70;;
7375;SDS011;3728;42.266;24.944;2022-12-29T00:48:09;14.53;;;10.17;;
7375;SDS011;3728;42.266;24.944;2022-12-29T00:50:37;14.93;;;11.27;;
7375;SDS011;3728;42.266;24.944;2022-12-29T00:53:04;17.33;;;13.10;;
7375;SDS011;3728;42.266;24.944;2022-12-29T00:55:35;16.33;;;11.20;;
7375;SDS011;3728;42.266;24.944;2022-12-29T00:58:06;18.07;;;11.50;;
7375;SDS011;3728;42.266;24.944;2022-12-29T01:00:34;20.97;;;12.97;;
7375;SDS011;3728;42.266;24.944;2022-12-29T01:03:02;20.30;;;12.60;;
7375;SDS011;3728;42.266;24.944;2022-12-29T01:05:35;26.43;;;13.13;;
7375;SDS011;3728;42.266;24.944;2022-12-29T01:08:05;21.90;;;12.77;;
7375;SDS011;3728;42.266;24.944;2022-12-29T01:10:32;51.70;;;24.90;;
7375;SDS011;3728;42.266;24.944;2022-12-29T01:13:00;67.00;;;29.47;;
7375;SDS011;3728;42.266;24.944;2022-12-29T01:15:28;62.80;;;28.63;;
7375;SDS011;3728;42.266;24.944;2022-12-29T01:17:55;48.73;;;23.17;;
7375;SDS011;3728;42.266;24.944;2022-12-29T01:20:23;33.33;;;18.70;;
7375;SDS011;3728;42.266;24.944;2022-12-29T01:22:51;21.10;;;14.00;;
7375;SDS011;3728;42.266;24.944;2022-12-29T01:25:19;22.00;;;14.60;;
7375;SDS011;3728;42.266;24.944;2022-12-29T01:27:47;25.73;;;15.13;;
7375;SDS011;3728;42.266;24.944;2022-12-29T01:30:14;19.80;;;13.90;;
7375;SDS011;3728;42.266;24.944;2022-12-29T01:32:43;25.70;;;13.10;;
7375;SDS011;3728;42.266;24.944;2022-12-29T01:35:11;18.10;;;12.13;;
7375;SDS011;3728;42.266;24.944;2022-12-29T01:37:39;18.07;;;11.23;;
7375;SDS011;3728;42.266;24.944;2022-12-29T01:40:07;20.30;;;12.67;;
7375;SDS011;3728;42.266;24.944;2022-12-29T01:42:35;19.30;;;12.97;;
7375;SDS011;3728;42.266;24.944;2022-12-29T01:45:12;21.73;;;12.43;;
7375;SDS011;3728;42.266;24.944;2022-12-29T01:47:52;18.90;;;12.20;;
7375;SDS011;3728;42.266;24.944;2022-12-29T01:50:30;16.97;;;11.13;;
7375;SDS011;3728;42.266;24.944;2022-12-29T01:53:26;18.03;;;11.73;;
7375;SDS011;3728;42.266;24.944;2022-12-29T01:55:59;16.73;;;10.90;;
7375;SDS011;3728;42.266;24.944;2022-12-29T01:58:33;15.43;;;11.90;;
7375;SDS011;3728;42.266;24.944;2022-12-29T02:01:06;15.33;;;11.87;;
7375;SDS011;3728;42.266;24.944;2022-12-29T02:03:34;13.40;;;11.20;;
7375;SDS011;3728;42.266;24.944;2022-12-29T02:06:14;15.57;;;11.97;;
7375;SDS011;3728;42.266;24.944;2022-12-29T02:08:54;18.07;;;11.63;;
7375;SDS011;3728;42.266;24.944;2022-12-29T02:11:24;15.40;;;11.47;;
7375;SDS011;3728;42.266;24.944;2022-12-29T02:13:54;18.57;;;11.60;;
7375;SDS011;3728;42.266;24.944;2022-12-29T02:28:27;17.07;;;12.03;;
7375;SDS011;3728;42.266;24.944;2022-12-29T02:34:29;21.67;;;12.40;;
7375;SDS011;3728;42.266;24.944;2022-12-29T02:37:21;23.10;;;12.20;;
7375;SDS011;3728;42.266;24.944;2022-12-29T02:48:36;21.97;;;13.77;;
7375;SDS011;3728;42.266;24.944;2022-12-29T02:54:31;23.63;;;14.13;;
7375;SDS011;3728;42.266;24.944;2022-12-29T02:57:13;21.47;;;13.90;;
7375;SDS011;3728;42.266;24.944;2022-12-29T02:59:53;20.73;;;13.87;;
7375;SDS011;3728;42.266;24.944;2022-12-29T03:09:03;23.63;;;17.23;;
7375;SDS011;3728;42.266;24.944;2022-12-29T03:12:03;29.83;;;20.37;;
7375;SDS011;3728;42.266;24.944;2022-12-29T03:15:00;28.67;;;19.73;;
7375;SDS011;3728;42.266;24.944;2022-12-29T03:17:57;27.90;;;21.43;;
7375;SDS011;3728;42.266;24.944;2022-12-29T03:20:42;25.07;;;19.27;;
7375;SDS011;3728;42.266;24.944;2022-12-29T03:23:34;24.77;;;16.07;;
7375;SDS011;3728;42.266;24.944;2022-12-29T03:26:07;22.27;;;16.50;;
7375;SDS011;3728;42.266;24.944;2022-12-29T03:28:42;21.70;;;15.90;;
7375;SDS011;3728;42.266;24.944;2022-12-29T03:31:20;18.63;;;15.20;;
7375;SDS011;3728;42.266;24.944;2022-12-29T03:33:51;20.10;;;14.90;;
7375;SDS011;3728;42.266;24.944;2022-12-29T03:36:30;22.50;;;14.90;;
7375;SDS011;3728;42.266;24.944;2022-12-29T03:39:09;19.93;;;14.63;;
7375;SDS011;3728;42.266;24.944;2022-12-29T03:41:40;16.00;;;12.93;;
7375;SDS011;3728;42.266;24.944;2022-12-29T03:44:12;30.40;;;19.83;;
7375;SDS011;3728;42.266;24.944;2022-12-29T03:46:40;27.70;;;19.90;;
7375;SDS011;3728;42.266;24.944;2022-12-29T03:49:07;26.87;;;18.80;;
7375;SDS011;3728;42.266;24.944;2022-12-29T03:51:35;29.63;;;18.30;;
7375;SDS011;3728;42.266;24.944;2022-12-29T03:54:04;29.20;;;21.60;;
7375;SDS011;3728;42.266;24.944;2022-12-29T03:56:32;34.20;;;23.13;;
7375;SDS011;3728;42.266;24.944;2022-12-29T03:59:01;33.30;;;23.90;;
7375;SDS011;3728;42.266;24.944;2022-12-29T04:01:35;33.53;;;24.27;;
7375;SDS011;3728;42.266;24.944;2022-12-29T04:04:03;29.03;;;21.23;;
7375;SDS011;3728;42.266;24.944;2022-12-29T04:06:31;33.63;;;21.30;;
7375;SDS011;3728;42.266;24.944;2022-12-29T04:09:02;37.57;;;25.57;;
7375;SDS011;3728;42.266;24.944;2022-12-29T04:11:34;45.80;;;30.53;;
7375;SDS011;3728;42.266;24.944;2022-12-29T04:14:02;41.53;;;30.50;;
7375;SDS011;3728;42.266;24.944;2022-12-29T04:16:32;36.00;;;27.23;;
7375;SDS011;3728;42.266;24.944;2022-12-29T04:19:04;34.73;;;26.13;;
7375;SDS011;3728;42.266;24.944;2022-12-29T04:21:34;46.10;;;34.07;;
7375;SDS011;3728;42.266;24.944;2022-12-29T04:24:03;48.10;;;34.40;;
7375;SDS011;3728;42.266;24.944;2022-12-29T04:26:37;61.90;;;38.60;;
7375;SDS011;3728;42.266;24.944;2022-12-29T04:29:21;52.70;;;36.13;;
7375;SDS011;3728;42.266;24.944;2022-12-29T04:32:12;38.23;;;28.60;;
7375;SDS011;3728;42.266;24.944;2022-12-29T04:34:45;34.20;;;23.03;;
7375;SDS011;3728;42.266;24.944;2022-12-29T04:37:12;28.37;;;19.77;;
7375;SDS011;3728;42.266;24.944;2022-12-29T04:39:40;25.10;;;17.73;;
7375;SDS011;3728;42.266;24.944;2022-12-29T04:42:08;23.53;;;15.93;;
7375;SDS011;3728;42.266;24.944;2022-12-29T04:44:36;22.50;;;16.37;;
7375;SDS011;3728;42.266;24.944;2022-12-29T04:47:31;23.53;;;15.87;;
7375;SDS011;3728;42.266;24.944;2022-12-29T04:50:21;33.67;;;21.10;;
7375;SDS011;3728;42.266;24.944;2022-12-29T04:52:53;39.90;;;18.13;;
7375;SDS011;3728;42.266;24.944;2022-12-29T04:55:22;17.90;;;12.03;;
7375;SDS011;3728;42.266;24.944;2022-12-29T04:57:49;19.73;;;14.13;;
7375;SDS011;3728;42.266;24.944;2022-12-29T05:00:18;16.37;;;11.80;;
7375;SDS011;3728;42.266;24.944;2022-12-29T05:02:46;15.93;;;11.50;;
7375;SDS011;3728;42.266;24.944;2022-12-29T05:05:14;15.50;;;11.43;;
7375;SDS011;3728;42.266;24.944;2022-12-29T05:07:46;27.07;;;11.57;;
7375;SDS011;3728;42.266;24.944;2022-12-29T05:10:15;23.10;;;11.67;;
7375;SDS011;3728;42.266;24.944;2022-12-29T05:12:43;33.63;;;12.73;;
7375;SDS011;3728;42.266;24.944;2022-12-29T05:15:12;29.00;;;13.80;;
7375;SDS011;3728;42.266;24.944;2022-12-29T05:17:41;32.53;;;13.67;;
7375;SDS011;3728;42.266;24.944;2022-12-29T05:20:09;24.10;;;13.33;;
7375;SDS011;3728;42.266;24.944;2022-12-29T05:22:38;31.13;;;13.67;;
7375;SDS011;3728;42.266;24.944;2022-12-29T05:25:06;29.00;;;14.00;;
7375;SDS011;3728;42.266;24.944;2022-12-29T05:27:46;26.73;;;13.67;;
7375;SDS011;3728;42.266;24.944;2022-12-29T05:30:20;28.17;;;14.73;;
7375;SDS011;3728;42.266;24.944;2022-12-29T05:32:48;27.03;;;14.03;;
7375;SDS011;3728;42.266;24.944;2022-12-29T05:35:16;25.93;;;13.20;;
7375;SDS011;3728;42.266;24.944;2022-12-29T05:37:44;35.37;;;14.97;;
7375;SDS011;3728;42.266;24.944;2022-12-29T05:40:11;36.03;;;14.43;;
7375;SDS011;3728;42.266;24.944;2022-12-29T05:42:59;41.00;;;15.37;;
7375;SDS011;3728;42.266;24.944;2022-12-29T05:45:35;72.63;;;17.80;;
7375;SDS011;3728;42.266;24.944;2022-12-29T05:48:22;60.37;;;16.50;;
7375;SDS011;3728;42.266;24.944;2022-12-29T05:51:14;45.37;;;15.07;;
7375;SDS011;3728;42.266;24.944;2022-12-29T05:53:48;57.53;;;15.60;;
7375;SDS011;3728;42.266;24.944;2022-12-29T05:56:16;58.57;;;16.83;;
7375;SDS011;3728;42.266;24.944;2022-12-29T05:58:51;40.70;;;15.77;;
7375;SDS011;3728;42.266;24.944;2022-12-29T06:01:20;53.77;;;16.47;;
7375;SDS011;3728;42.266;24.944;2022-12-29T06:03:47;34.63;;;15.83;;
7375;SDS011;3728;42.266;24.944;2022-12-29T06:06:18;29.90;;;16.90;;
7375;SDS011;3728;42.266;24.944;2022-12-29T06:08:46;34.43;;;17.37;;
7375;SDS011;3728;42.266;24.944;2022-12-29T06:11:14;26.03;;;15.73;;
7375;SDS011;3728;42.266;24.944;2022-12-29T06:13:48;28.13;;;16.07;;
7375;SDS011;3728;42.266;24.944;2022-12-29T06:16:16;31.20;;;16.23;;
7375;SDS011;3728;42.266;24.944;2022-12-29T06:18:44;23.03;;;14.77;;
7375;SDS011;3728;42.266;24.944;2022-12-29T06:21:11;20.13;;;14.37;;
7375;SDS011;3728;42.266;24.944;2022-12-29T06:23:39;21.97;;;14.67;;
7375;SDS011;3728;42.266;24.944;2022-12-29T06:26:07;26.97;;;15.23;;
7375;SDS011;3728;42.266;24.944;2022-12-29T06:28:35;48.53;;;17.40;;
7375;SDS011;3728;42.266;24.944;2022-12-29T06:31:02;47.03;;;17.27;;
7375;SDS011;3728;42.266;24.944;2022-12-29T06:33:30;55.03;;;30.53;;
7375;SDS011;3728;42.266;24.944;2022-12-29T06:35:57;73.40;;;45.47;;
7375;SDS011;3728;42.266;24.944;2022-12-29T06:38:25;72.23;;;44.17;;
7375;SDS011;3728;42.266;24.944;2022-12-29T06:40:53;59.20;;;41.33;;
7375;SDS011;3728;42.266;24.944;2022-12-29T06:43:39;50.40;;;36.10;;
7375;SDS011;3728;42.266;24.944;2022-12-29T06:46:15;46.60;;;33.53;;
7375;SDS011;3728;42.266;24.944;2022-12-29T06:48:42;53.17;;;32.40;;
7375;SDS011;3728;42.266;24.944;2022-12-29T06:51:10;51.97;;;35.43;;
7375;SDS011;3728;42.266;24.944;2022-12-29T06:53:37;51.70;;;34.67;;
7375;SDS011;3728;42.266;24.944;2022-12-29T06:56:05;171.37;;;90.60;;
7375;SDS011;3728;42.266;24.944;2022-12-29T06:58:33;122.80;;;72.80;;
7375;SDS011;3728;42.266;24.944;2022-12-29T07:01:00;81.27;;;54.73;;
7375;SDS011;3728;42.266;24.944;2022-12-29T07:03:29;89.20;;;53.40;;
7375;SDS011;3728;42.266;24.944;2022-12-29T07:05:59;59.37;;;35.47;;
7375;SDS011;3728;42.266;24.944;2022-12-29T07:08:27;88.93;;;46.17;;
7375;SDS011;3728;42.266;24.944;2022-12-29T07:10:54;41.07;;;23.27;;
7375;SDS011;3728;42.266;24.944;2022-12-29T07:13:22;35.60;;;21.23;;
7375;SDS011;3728;42.266;24.944;2022-12-29T07:15:51;52.53;;;34.17;;
7375;SDS011;3728;42.266;24.944;2022-12-29T07:18:18;48.87;;;32.43;;
7375;SDS011;3728;42.266;24.944;2022-12-29T07:20:48;52.87;;;38.17;;
7375;SDS011;3728;42.266;24.944;2022-12-29T07:23:15;65.87;;;43.23;;
7375;SDS011;3728;42.266;24.944;2022-12-29T07:25:43;69.37;;;43.63;;
7375;SDS011;3728;42.266;24.944;2022-12-29T07:28:10;47.60;;;29.30;;
7375;SDS011;3728;42.266;24.944;2022-12-29T07:30:38;38.80;;;23.87;;
7375;SDS011;3728;42.266;24.944;2022-12-29T07:33:06;44.27;;;26.50;;
7375;SDS011;3728;42.266;24.944;2022-12-29T07:35:34;41.70;;;26.43;;
7375;SDS011;3728;42.266;24.944;2022-12-29T07:38:02;96.73;;;45.83;;
7375;SDS011;3728;42.266;24.944;2022-12-29T07:40:30;60.77;;;33.60;;
7375;SDS011;3728;42.266;24.944;2022-12-29T07:42:57;31.57;;;22.27;;
7375;SDS011;3728;42.266;24.944;2022-12-29T07:45:32;28.33;;;19.40;;
7375;SDS011;3728;42.266;24.944;2022-12-29T07:48:07;51.10;;;32.80;;
7375;SDS011;3728;42.266;24.944;2022-12-29T07:50:35;26.97;;;19.10;;
7375;SDS011;3728;42.266;24.944;2022-12-29T07:53:03;25.70;;;17.77;;
7375;SDS011;3728;42.266;24.944;2022-12-29T07:55:32;27.30;;;19.93;;
7375;SDS011;3728;42.266;24.944;2022-12-29T07:58:03;70.50;;;42.07;;
7375;SDS011;3728;42.266;24.944;2022-12-29T08:00:32;34.50;;;21.47;;
7375;SDS011;3728;42.266;24.944;2022-12-29T08:03:00;53.27;;;33.70;;
7375;SDS011;3728;42.266;24.944;2022-12-29T08:05:29;61.13;;;30.67;;
7375;SDS011;3728;42.266;24.944;2022-12-29T08:07:59;27.70;;;20.27;;
7375;SDS011;3728;42.266;24.944;2022-12-29T08:10:26;35.07;;;21.90;;
7375;SDS011;3728;42.266;24.944;2022-12-29T08:12:54;76.17;;;36.60;;
7375;SDS011;3728;42.266;24.944;2022-12-29T08:15:22;54.90;;;37.63;;
7375;SDS011;3728;42.266;24.944;2022-12-29T08:17:58;49.63;;;30.87;;
7375;SDS011;3728;42.266;24.944;2022-12-29T08:20:25;31.63;;;21.07;;
7375;SDS011;3728;42.266;24.944;2022-12-29T08:22:53;29.73;;;16.43;;
7375;SDS011;3728;42.266;24.944;2022-12-29T08:25:21;27.13;;;18.63;;
7375;SDS011;3728;42.266;24.944;2022-12-29T08:27:51;28.23;;;18.10;;
7375;SDS011;3728;42.266;24.944;2022-12-29T08:30:19;18.30;;;12.87;;
7375;SDS011;3728;42.266;24.944;2022-12-29T08:32:50;22.37;;;14.37;;
7375;SDS011;3728;42.266;24.944;2022-12-29T08:35:17;17.13;;;13.40;;
7375;SDS011;3728;42.266;24.944;2022-12-29T08:37:45;22.47;;;13.80;;
7375;SDS011;3728;42.266;24.944;2022-12-29T08:40:13;17.63;;;13.83;;
7375;SDS011;3728;42.266;24.944;2022-12-29T08:42:41;21.73;;;14.03;;
7375;SDS011;3728;42.266;24.944;2022-12-29T08:45:08;18.57;;;13.23;;
7375;SDS011;3728;42.266;24.944;2022-12-29T08:47:36;19.57;;;12.77;;
7375;SDS011;3728;42.266;24.944;2022-12-29T08:50:04;16.47;;;11.97;;
7375;SDS011;3728;42.266;24.944;2022-12-29T08:52:32;26.93;;;13.10;;
7375;SDS011;3728;42.266;24.944;2022-12-29T08:55:00;20.87;;;12.37;;
7375;SDS011;3728;42.266;24.944;2022-12-29T08:57:29;18.63;;;13.10;;
7375;SDS011;3728;42.266;24.944;2022-12-29T09:00:12;22.00;;;14.97;;
7375;SDS011;3728;42.266;24.944;2022-12-29T09:02:41;26.23;;;16.63;;
7375;SDS011;3728;42.266;24.944;2022-12-29T09:05:09;24.30;;;16.87;;
7375;SDS011;3728;42.266;24.944;2022-12-29T09:07:37;33.03;;;17.50;;
7375;SDS011;3728;42.266;24.944;2022-12-29T09:10:04;20.10;;;16.97;;
7375;SDS011;3728;42.266;24.944;2022-12-29T09:12:33;32.40;;;15.83;;
7375;SDS011;3728;42.266;24.944;2022-12-29T09:15:03;21.80;;;16.60;;
7375;SDS011;3728;42.266;24.944;2022-12-29T09:17:33;25.23;;;15.43;;
7375;SDS011;3728;42.266;24.944;2022-12-29T09:20:11;19.17;;;15.17;;
7375;SDS011;3728;42.266;24.944;2022-12-29T09:22:42;21.40;;;15.70;;
7375;SDS011;3728;42.266;24.944;2022-12-29T09:25:10;22.47;;;16.67;;
7375;SDS011;3728;42.266;24.944;2022-12-29T09:27:38;20.53;;;15.50;;
7375;SDS011;3728;42.266;24.944;2022-12-29T09:30:07;20.50;;;15.27;;
7375;SDS011;3728;42.266;24.944;2022-12-29T09:32:38;19.73;;;16.57;;
7375;SDS011;3728;42.266;24.944;2022-12-29T09:35:10;24.67;;;17.00;;
7375;SDS011;3728;42.266;24.944;2022-12-29T09:37:39;21.83;;;17.13;;
7375;SDS011;3728;42.266;24.944;2022-12-29T09:40:27;24.00;;;17.17;;
7375;SDS011;3728;42.266;24.944;2022-12-29T09:46:43;23.33;;;18.90;;
7375;SDS011;3728;42.266;24.944;2022-12-29T09:49:26;24.67;;;18.07;;
7375;SDS011;3728;42.266;24.944;2022-12-29T09:52:03;22.50;;;17.57;;
7375;SDS011;3728;42.266;24.944;2022-12-29T09:57:43;27.30;;;18.70;;
7375;SDS011;3728;42.266;24.944;2022-12-29T10:03:54;23.73;;;19.87;;
7375;SDS011;3728;42.266;24.944;2022-12-29T10:06:32;22.37;;;19.60;;
7375;SDS011;3728;42.266;24.944;2022-12-29T10:09:45;26.80;;;18.97;;
7375;SDS011;3728;42.266;24.944;2022-12-29T10:13:01;32.43;;;20.30;;
7375;SDS011;3728;42.266;24.944;2022-12-29T10:15:39;24.93;;;20.60;;
7375;SDS011;3728;42.266;24.944;2022-12-29T10:21:23;26.53;;;21.30;;
7375;SDS011;3728;42.266;24.944;2022-12-29T10:24:23;28.47;;;22.20;;
7375;SDS011;3728;42.266;24.944;2022-12-29T10:26:54;27.40;;;22.70;;
7375;SDS011;3728;42.266;24.944;2022-12-29T10:29:27;27.80;;;22.30;;
7375;SDS011;3728;42.266;24.944;2022-12-29T10:32:02;26.60;;;20.20;;
7375;SDS011;3728;42.266;24.944;2022-12-29T10:34:36;24.63;;;20.80;;
7375;SDS011;3728;42.266;24.944;2022-12-29T10:37:24;29.87;;;21.63;;
7375;SDS011;3728;42.266;24.944;2022-12-29T10:43:27;32.03;;;20.97;;
7375;SDS011;3728;42.266;24.944;2022-12-29T10:46:01;24.93;;;20.60;;
7375;SDS011;3728;42.266;24.944;2022-12-29T10:48:34;26.30;;;20.87;;
7375;SDS011;3728;42.266;24.944;2022-12-29T10:51:04;25.93;;;21.47;;
7375;SDS011;3728;42.266;24.944;2022-12-29T10:53:37;31.20;;;22.80;;
7375;SDS011;3728;42.266;24.944;2022-12-29T10:56:25;26.73;;;21.27;;
7375;SDS011;3728;42.266;24.944;2022-12-29T10:59:16;27.00;;;21.57;;
7375;SDS011;3728;42.266;24.944;2022-12-29T11:04:48;22.10;;;18.03;;
7375;SDS011;3728;42.266;24.944;2022-12-29T11:08:13;20.63;;;16.20;;
7375;SDS011;3728;42.266;24.944;2022-12-29T11:10:46;23.53;;;18.47;;
7375;SDS011;3728;42.266;24.944;2022-12-29T11:13:31;20.80;;;17.93;;
7375;SDS011;3728;42.266;24.944;2022-12-29T11:16:04;20.60;;;16.80;;
7375;SDS011;3728;42.266;24.944;2022-12-29T11:18:37;21.97;;;16.00;;
7375;SDS011;3728;42.266;24.944;2022-12-29T11:21:07;23.10;;;17.43;;
7375;SDS011;3728;42.266;24.944;2022-12-29T11:24:19;20.97;;;16.20;;
7375;SDS011;3728;42.266;24.944;2022-12-29T11:27:08;21.43;;;16.67;;
7375;SDS011;3728;42.266;24.944;2022-12-29T11:29:57;23.63;;;16.37;;
7375;SDS011;3728;42.266;24.944;2022-12-29T11:32:26;26.60;;;18.57;;
7375;SDS011;3728;42.266;24.944;2022-12-29T11:34:58;27.33;;;17.93;;
7375;SDS011;3728;42.266;24.944;2022-12-29T11:40:25;27.43;;;19.27;;
7375;SDS011;3728;42.266;24.944;2022-12-29T11:42:55;26.53;;;18.20;;
7375;SDS011;3728;42.266;24.944;2022-12-29T11:45:34;24.30;;;18.90;;
7375;SDS011;3728;42.266;24.944;2022-12-29T11:48:07;23.17;;;17.37;;
7375;SDS011;3728;42.266;24.944;2022-12-29T11:51:05;19.83;;;16.20;;
7375;SDS011;3728;42.266;24.944;2022-12-29T11:53:38;16.93;;;15.13;;
7375;SDS011;3728;42.266;24.944;2022-12-29T11:56:15;19.03;;;15.07;;
7375;SDS011;3728;42.266;24.944;2022-12-29T11:58:52;20.47;;;15.83;;
7375;SDS011;3728;42.266;24.944;2022-12-29T12:01:24;21.47;;;15.70;;
7375;SDS011;3728;42.266;24.944;2022-12-29T12:04:03;23.20;;;15.53;;
7375;SDS011;3728;42.266;24.944;2022-12-29T12:06:47;20.13;;;14.23;;
7375;SDS011;3728;42.266;24.944;2022-12-29T12:09:47;20.57;;;16.10;;
7375;SDS011;3728;42.266;24.944;2022-12-29T12:12:35;22.90;;;15.77;;
7375;SDS011;3728;42.266;24.944;2022-12-29T12:15:17;21.07;;;15.53;;
7375;SDS011;3728;42.266;24.944;2022-12-29T12:18:00;18.73;;;16.33;;
7375;SDS011;3728;42.266;24.944;2022-12-29T12:20:45;20.50;;;15.47;;
7375;SDS011;3728;42.266;24.944;2022-12-29T12:23:44;19.80;;;15.47;;
7375;SDS011;3728;42.266;24.944;2022-12-29T12:29:25;19.23;;;14.07;;
7375;SDS011;3728;42.266;24.944;2022-12-29T12:35:16;16.20;;;14.07;;
7375;SDS011;3728;42.266;24.944;2022-12-29T12:44:15;15.47;;;13.27;;
7375;SDS011;3728;42.266;24.944;2022-12-29T12:50:25;17.90;;;13.87;;
7375;SDS011;3728;42.266;24.944;2022-12-29T12:53:14;18.43;;;13.17;;
7375;SDS011;3728;42.266;24.944;2022-12-29T12:59:30;22.60;;;13.40;;
7375;SDS011;3728;42.266;24.944;2022-12-29T13:02:39;14.33;;;12.70;;
7375;SDS011;3728;42.266;24.944;2022-12-29T13:08:57;14.67;;;13.03;;
7375;SDS011;3728;42.266;24.944;2022-12-29T13:12:03;15.17;;;12.23;;
7375;SDS011;3728;42.266;24.944;2022-12-29T13:17:55;19.17;;;14.50;;
7375;SDS011;3728;42.266;24.944;2022-12-29T13:20:40;17.40;;;14.90;;
7375;SDS011;3728;42.266;24.944;2022-12-29T13:23:23;17.50;;;15.63;;
7375;SDS011;3728;42.266;24.944;2022-12-29T13:26:14;30.03;;;23.37;;
7375;SDS011;3728;42.266;24.944;2022-12-29T13:35:10;19.20;;;16.30;;
7375;SDS011;3728;42.266;24.944;2022-12-29T13:38:12;41.83;;;18.93;;
7375;SDS011;3728;42.266;24.944;2022-12-29T13:40:49;21.10;;;17.50;;
7375;SDS011;3728;42.266;24.944;2022-12-29T13:43:24;29.10;;;17.73;;
7375;SDS011;3728;42.266;24.944;2022-12-29T13:46:18;19.03;;;16.43;;
7375;SDS011;3728;42.266;24.944;2022-12-29T13:48:56;26.30;;;17.57;;
7375;SDS011;3728;42.266;24.944;2022-12-29T13:51:49;19.33;;;17.03;;
7375;SDS011;3728;42.266;24.944;2022-12-29T14:00:35;19.70;;;17.57;;
7375;SDS011;3728;42.266;24.944;2022-12-29T14:03:30;21.07;;;17.03;;
7375;SDS011;3728;42.266;24.944;2022-12-29T14:08:54;21.70;;;17.40;;
7375;SDS011;3728;42.266;24.944;2022-12-29T14:11:38;31.00;;;17.47;;
7375;SDS011;3728;42.266;24.944;2022-12-29T14:14:16;32.90;;;16.63;;
7375;SDS011;3728;42.266;24.944;2022-12-29T14:16:57;19.40;;;15.97;;
7375;SDS011;3728;42.266;24.944;2022-12-29T14:19:41;19.27;;;15.43;;
7375;SDS011;3728;42.266;24.944;2022-12-29T14:22:13;27.37;;;16.90;;
7375;SDS011;3728;42.266;24.944;2022-12-29T14:24:58;29.03;;;16.17;;
7375;SDS011;3728;42.266;24.944;2022-12-29T14:33:22;20.17;;;15.20;;
7375;SDS011;3728;42.266;24.944;2022-12-29T14:35:53;28.57;;;16.57;;
7375;SDS011;3728;42.266;24.944;2022-12-29T14:38:23;28.17;;;16.23;;
7375;SDS011;3728;42.266;24.944;2022-12-29T14:44:02;30.77;;;17.03;;
7375;SDS011;3728;42.266;24.944;2022-12-29T14:49:21;80.57;;;44.37;;
7375;SDS011;3728;42.266;24.944;2022-12-29T14:51:55;88.53;;;48.37;;
7375;SDS011;3728;42.266;24.944;2022-12-29T14:57:49;99.03;;;54.37;;
7375;SDS011;3728;42.266;24.944;2022-12-29T15:00:27;130.70;;;71.13;;
7375;SDS011;3728;42.266;24.944;2022-12-29T15:05:44;112.33;;;61.33;;
7375;SDS011;3728;42.266;24.944;2022-12-29T15:08:33;114.87;;;62.27;;
7375;SDS011;3728;42.266;24.944;2022-12-29T15:11:11;86.37;;;52.37;;
7375;SDS011;3728;42.266;24.944;2022-12-29T15:17:27;82.60;;;48.47;;
7375;SDS011;3728;42.266;24.944;2022-12-29T15:20:13;84.73;;;52.37;;
7375;SDS011;3728;42.266;24.944;2022-12-29T15:23:02;94.77;;;56.57;;
7375;SDS011;3728;42.266;24.944;2022-12-29T15:25:47;99.00;;;63.27;;
7375;SDS011;3728;42.266;24.944;2022-12-29T15:28:50;102.47;;;60.70;;
7375;SDS011;3728;42.266;24.944;2022-12-29T15:31:22;125.47;;;75.90;;
7375;SDS011;3728;42.266;24.944;2022-12-29T15:34:07;157.83;;;98.30;;
7375;SDS011;3728;42.266;24.944;2022-12-29T15:36:39;167.87;;;104.30;;
7375;SDS011;3728;42.266;24.944;2022-12-29T15:39:26;189.83;;;112.70;;
7375;SDS011;3728;42.266;24.944;2022-12-29T15:45:33;186.97;;;108.17;;
7375;SDS011;3728;42.266;24.944;2022-12-29T15:48:03;192.63;;;107.37;;
7375;SDS011;3728;42.266;24.944;2022-12-29T15:50:34;188.90;;;105.00;;
7375;SDS011;3728;42.266;24.944;2022-12-29T15:53:15;207.20;;;106.77;;
7375;SDS011;3728;42.266;24.944;2022-12-29T15:56:07;194.70;;;101.70;;
7375;SDS011;3728;42.266;24.944;2022-12-29T15:58:42;224.50;;;117.27;;
7375;SDS011;3728;42.266;24.944;2022-12-29T16:04:02;225.37;;;118.43;;
7375;SDS011;3728;42.266;24.944;2022-12-29T16:06:36;199.93;;;115.50;;
7375;SDS011;3728;42.266;24.944;2022-12-29T16:09:17;201.13;;;111.67;;
7375;SDS011;3728;42.266;24.944;2022-12-29T16:11:58;189.57;;;107.13;;
7375;SDS011;3728;42.266;24.944;2022-12-29T16:14:42;173.90;;;96.20;;
7375;SDS011;3728;42.266;24.944;2022-12-29T16:17:30;173.50;;;95.90;;
7375;SDS011;3728;42.266;24.944;2022-12-29T16:20:02;169.73;;;97.57;;
7375;SDS011;3728;42.266;24.944;2022-12-29T16:22:49;174.60;;;98.33;;
7375;SDS011;3728;42.266;24.944;2022-12-29T16:25:33;191.27;;;117.20;;
7375;SDS011;3728;42.266;24.944;2022-12-29T16:28:14;186.53;;;122.33;;
7375;SDS011;3728;42.266;24.944;2022-12-29T16:31:01;179.53;;;118.10;;
7375;SDS011;3728;42.266;24.944;2022-12-29T16:33:46;181.50;;;118.20;;
7375;SDS011;3728;42.266;24.944;2022-12-29T16:36:27;198.47;;;129.87;;
7375;SDS011;3728;42.266;24.944;2022-12-29T16:41:55;183.07;;;112.07;;
7375;SDS011;3728;42.266;24.944;2022-12-29T16:44:27;166.43;;;105.17;;
7375;SDS011;3728;42.266;24.944;2022-12-29T16:49:31;168.87;;;103.37;;
7375;SDS011;3728;42.266;24.944;2022-12-29T16:52:10;169.00;;;107.17;;
7375;SDS011;3728;42.266;24.944;2022-12-29T16:54:48;152.90;;;97.83;;
7375;SDS011;3728;42.266;24.944;2022-12-29T16:57:25;143.73;;;90.60;;
7375;SDS011;3728;42.266;24.944;2022-12-29T17:00:02;121.27;;;80.33;;
7375;SDS011;3728;42.266;24.944;2022-12-29T17:02:34;129.43;;;79.67;;
7375;SDS011;3728;42.266;24.944;2022-12-29T17:05:15;127.40;;;76.60;;
7375;SDS011;3728;42.266;24.944;2022-12-29T17:07:46;114.17;;;68.23;;
7375;SDS011;3728;42.266;24.944;2022-12-29T17:10:15;106.87;;;64.10;;
7375;SDS011;3728;42.266;24.944;2022-12-29T17:12:43;96.37;;;61.13;;
7375;SDS011;3728;42.266;24.944;2022-12-29T17:17:54;99.57;;;59.17;;
7375;SDS011;3728;42.266;24.944;2022-12-29T17:20:29;107.40;;;57.37;;
7375;SDS011;3728;42.266;24.944;2022-12-29T17:22:57;110.27;;;64.73;;
7375;SDS011;3728;42.266;24.944;2022-12-29T17:28:00;109.60;;;58.70;;
7375;SDS011;3728;42.266;24.944;2022-12-29T17:30:38;101.40;;;57.73;;
7375;SDS011;3728;42.266;24.944;2022-12-29T17:33:11;103.03;;;61.60;;
7375;SDS011;3728;42.266;24.944;2022-12-29T17:35:46;112.83;;;66.13;;